Rogue Valley International Medford Airport Medford US
ICAO: KMFR
IATA: MFR
Category: Medium
Scheduled Services: Yes

Elevation: 1335 ft
TransAlt. 18000 ft.

Airport Communications:
CASCADE APP/DEP:124.3
ATIS:127.25
CTAF:119.4
GND:121.8
MC MINNVILLE RDO:122.65
MEDFORD TWR:119.4
UNICOM:122.95

KMFR Zoom In..

Runways:

(A) RW 14 length 8800 ft width 150 ft
ILS 110.30 / hdg 142

(B) RW 32 length 8800 ft width 150 ft
---- / hdg 322

Location; KMFR
Day. 09 / Time. 22.53 Zulu
* Altimeter: 29.91
* Temperature: 29° c. 84.2°f.
* Wind from: 300° Speed 10 kn.
Dewpoint: 07° c.
Visibility: 10 Statute Miles.
Clouds: Few 1000 ft.

KMFR 092253Z 30010KT 260V340 10SM FEW100 29/07 A2991 RMK AO2 SLP119 T02940072

Going to: --> -->


Wind From 300°
Speed 10 kn.

 
 
jpsmedia worldairports.se 2020   terms of use